createdAt,value
2023-05-02T00:01:42.330Z,99148.28
2023-05-02T00:04:09.700Z,99119.81
2023-05-02T00:06:37.000Z,99125.50
2023-05-02T00:09:04.303Z,99154.09
2023-05-02T00:11:38.096Z,99151.72
2023-05-02T00:14:08.947Z,99125.91
2023-05-02T00:16:36.216Z,99145.34
2023-05-02T00:19:04.508Z,99135.56
2023-05-02T00:21:33.149Z,99144.06
2023-05-02T00:24:01.091Z,99139.53
2023-05-02T00:26:29.123Z,99147.72
2023-05-02T00:28:56.480Z,99168.31
2023-05-02T00:31:23.691Z,99146.34
2023-05-02T00:33:51.015Z,99162.09
2023-05-02T00:36:20.415Z,99141.03
2023-05-02T00:38:47.774Z,99154.19
2023-05-02T00:41:17.410Z,99165.16
2023-05-02T00:43:45.213Z,99163.44
2023-05-02T00:46:13.408Z,99171.66
2023-05-02T00:48:41.299Z,99179.16
2023-05-02T00:51:13.603Z,99175.84
2023-05-02T00:53:41.954Z,99183.81
2023-05-02T00:56:10.066Z,99189.63
2023-05-02T00:58:39.034Z,99182.09
2023-05-02T01:01:35.528Z,99188.50
2023-05-02T01:04:13.314Z,99218.53
2023-05-02T01:06:47.372Z,99216.88
2023-05-02T01:09:42.436Z,99212.56
2023-05-02T01:12:48.083Z,99219.31
2023-05-02T01:15:22.146Z,99205.56
2023-05-02T01:17:52.605Z,99195.34
2023-05-02T01:20:23.956Z,99228.41
2023-05-02T01:22:52.628Z,99193.13
2023-05-02T01:26:04.805Z,99224.88
2023-05-02T01:28:47.893Z,99224.75
2023-05-02T01:31:16.823Z,99219.09
2023-05-02T01:33:46.523Z,99228.97
2023-05-02T01:36:16.292Z,99227.47
2023-05-02T01:38:45.261Z,99228.66
2023-05-02T01:41:13.788Z,99224.34
2023-05-02T01:43:41.794Z,99241.41
2023-05-02T01:46:10.918Z,99237.03
2023-05-02T01:48:38.264Z,99255.09
2023-05-02T01:51:07.938Z,99258.03
2023-05-02T01:53:36.449Z,99246.72
2023-05-02T01:56:04.469Z,99245.22
2023-05-02T01:58:33.607Z,99267.28
2023-05-02T02:01:01.859Z,99257.63
2023-05-02T02:03:31.417Z,99276.38
2023-05-02T02:05:59.785Z,99289.91
2023-05-02T02:08:27.301Z,99270.63
2023-05-02T02:10:59.501Z,99298.41
2023-05-02T02:13:42.260Z,99292.38
2023-05-02T02:16:13.177Z,99291.44
2023-05-02T02:21:36.963Z,99287.22
2023-05-02T02:24:07.064Z,99298.00
2023-05-02T02:26:35.516Z,99317.72
2023-05-02T02:29:04.401Z,99335.63
2023-05-02T02:31:33.560Z,99315.09
2023-05-02T02:34:01.492Z,99343.97
2023-05-02T02:36:40.822Z,99321.22
2023-05-02T02:39:16.899Z,99339.72
2023-05-02T02:41:54.360Z,99333.44
2023-05-02T02:44:40.175Z,99340.34
2023-05-02T02:47:16.731Z,99338.63
2023-05-02T02:49:50.527Z,99335.59
2023-05-02T02:52:40.952Z,99343.16
2023-05-02T02:55:16.551Z,99333.53
2023-05-02T02:57:55.790Z,99337.44
2023-05-02T03:00:27.731Z,99336.41
2023-05-02T03:02:56.898Z,99355.16
2023-05-02T03:05:24.919Z,99354.19
2023-05-02T03:07:52.626Z,99349.38
2023-05-02T03:10:19.969Z,99362.38
2023-05-02T03:12:47.836Z,99350.06
2023-05-02T03:15:41.600Z,99349.47
2023-05-02T03:18:08.786Z,99380.03
2023-05-02T03:20:36.071Z,99372.72
2023-05-02T03:23:03.671Z,99377.00
2023-05-02T03:25:30.956Z,99351.38
2023-05-02T03:28:20.673Z,99348.97
2023-05-02T03:30:47.964Z,99390.56
2023-05-02T03:33:15.314Z,99360.97
2023-05-02T03:35:42.930Z,99357.75
2023-05-02T03:38:10.088Z,99380.41
2023-05-02T03:40:37.371Z,99387.56
2023-05-02T03:43:05.501Z,99372.81
2023-05-02T03:45:32.640Z,99387.31
2023-05-02T03:47:59.978Z,99394.56
2023-05-02T03:50:27.206Z,99403.13
2023-05-02T03:52:54.502Z,99424.34
2023-05-02T03:55:21.909Z,99413.09
2023-05-02T03:57:49.118Z,99398.94
2023-05-02T04:00:16.296Z,99414.44
2023-05-02T04:03:02.091Z,99442.47
2023-05-02T04:05:29.578Z,99404.75
2023-05-02T04:07:57.607Z,99409.88
2023-05-02T04:10:24.822Z,99435.78
2023-05-02T04:12:52.006Z,99451.38
2023-05-02T04:15:19.315Z,99442.34
2023-05-02T04:17:46.982Z,99444.28
2023-05-02T04:20:14.382Z,99454.00
2023-05-02T04:22:42.317Z,99437.84
2023-05-02T04:25:09.985Z,99463.06
2023-05-02T04:27:37.329Z,99444.66
2023-05-02T04:30:04.950Z,99457.47
2023-05-02T04:32:32.414Z,99464.91
2023-05-02T04:35:02.352Z,99466.97
2023-05-02T04:37:29.553Z,99464.50
2023-05-02T04:39:57.163Z,99475.75
2023-05-02T04:42:25.123Z,99468.13
2023-05-02T04:44:53.014Z,99487.56
2023-05-02T04:47:20.503Z,99470.88
2023-05-02T04:49:47.851Z,99473.72
2023-05-02T04:52:15.306Z,99471.13
2023-05-02T04:54:42.940Z,99491.78
2023-05-02T04:57:11.381Z,99472.59
2023-05-02T04:59:38.870Z,99496.63
2023-05-02T05:02:26.895Z,99508.38
2023-05-02T05:04:54.398Z,99511.53
2023-05-02T05:07:21.817Z,99512.22
2023-05-02T05:09:50.197Z,99500.66
2023-05-02T05:12:19.259Z,99508.97
2023-05-02T05:14:46.621Z,99523.28
2023-05-02T05:17:14.582Z,99528.06
2023-05-02T05:19:41.886Z,99536.03
2023-05-02T05:22:10.099Z,99527.28
2023-05-02T05:24:37.352Z,99521.38
2023-05-02T05:27:04.546Z,99507.53
2023-05-02T05:29:33.431Z,99515.47
2023-05-02T05:32:00.853Z,99538.91
2023-05-02T05:34:28.141Z,99526.88
2023-05-02T05:36:58.901Z,99533.50
2023-05-02T05:39:26.315Z,99559.50
2023-05-02T05:42:23.043Z,99554.16
2023-05-02T05:44:50.566Z,99540.56
2023-05-02T05:47:24.497Z,99558.41
2023-05-02T05:49:55.650Z,99560.16
2023-05-02T05:52:23.259Z,99531.53
2023-05-02T05:54:57.860Z,99553.53
2023-05-02T05:57:27.226Z,99572.81
2023-05-02T05:59:54.850Z,99539.78
2023-05-02T06:02:23.457Z,99556.94
2023-05-02T06:04:51.481Z,99560.31
2023-05-02T06:07:18.930Z,99566.66
2023-05-02T06:09:46.293Z,99568.59
2023-05-02T06:12:13.609Z,99581.44
2023-05-02T06:14:41.297Z,99581.63
2023-05-02T06:17:08.631Z,99582.19
2023-05-02T06:19:36.238Z,99600.28
2023-05-02T06:22:03.670Z,99574.31
2023-05-02T06:24:31.363Z,99579.97
2023-05-02T06:26:59.663Z,99600.75
2023-05-02T06:29:29.441Z,99592.53
2023-05-02T06:31:57.464Z,99587.63
2023-05-02T06:34:25.070Z,99613.19
2023-05-02T06:36:58.793Z,99596.63
2023-05-02T06:39:26.556Z,99584.34
2023-05-02T06:42:00.556Z,99593.72
2023-05-02T06:44:27.881Z,99592.72
2023-05-02T06:46:58.297Z,99596.47
2023-05-02T06:49:27.081Z,99614.38
2023-05-02T06:51:54.230Z,99601.53
2023-05-02T06:54:22.103Z,99606.94
2023-05-02T06:56:49.432Z,99611.59
2023-05-02T06:59:18.970Z,99591.47
2023-05-02T07:01:46.323Z,99593.72
2023-05-02T07:04:13.678Z,99606.25
2023-05-02T07:06:43.543Z,99602.72
2023-05-02T07:09:11.025Z,99610.59
2023-05-02T07:11:38.478Z,99615.47
2023-05-02T07:14:05.696Z,99626.22
2023-05-02T07:16:35.854Z,99593.19
2023-05-02T07:19:04.880Z,99614.97
2023-05-02T07:21:32.880Z,99634.00
2023-05-02T07:24:00.555Z,99617.97
2023-05-02T07:26:31.266Z,99636.91
2023-05-02T07:28:58.636Z,99621.34
2023-05-02T07:44:51.128Z,99649.75
2023-05-02T07:47:18.302Z,99651.38
2023-05-02T07:49:45.558Z,99661.19
2023-05-02T07:52:12.624Z,99656.94
2023-05-02T07:54:39.847Z,99646.22
2023-05-02T07:57:08.932Z,99640.03
2023-05-02T07:59:36.164Z,99669.22
2023-05-02T08:02:05.991Z,99665.78
2023-05-02T08:04:33.813Z,99668.75
2023-05-02T08:07:01.542Z,99663.28
2023-05-02T08:09:29.782Z,99661.25
2023-05-02T08:11:57.431Z,99653.91
2023-05-02T08:14:24.743Z,99673.41
2023-05-02T08:16:52.086Z,99647.69
2023-05-02T08:19:19.623Z,99676.06
2023-05-02T08:21:46.845Z,99662.88
2023-05-02T08:24:14.345Z,99679.19
2023-05-02T08:26:41.737Z,99648.66
2023-05-02T08:29:11.867Z,99668.81
2023-05-02T08:31:42.384Z,99664.34
2023-05-02T08:34:10.980Z,99655.63
2023-05-02T08:36:38.438Z,99662.44
2023-05-02T08:39:08.284Z,99695.78
2023-05-02T08:41:35.919Z,99678.88
2023-05-02T08:44:04.610Z,99707.28
2023-05-02T08:46:35.577Z,99707.19
2023-05-02T08:49:03.896Z,99696.53
2023-05-02T08:51:33.044Z,99695.91
2023-05-02T08:54:07.893Z,99691.66
2023-05-02T08:56:35.132Z,99696.97
2023-05-02T08:59:04.737Z,99692.81
2023-05-02T09:01:36.980Z,99688.41
2023-05-02T09:04:05.087Z,99702.25
2023-05-02T09:06:33.124Z,99696.38
2023-05-02T09:09:00.952Z,99697.56
2023-05-02T09:11:28.208Z,99704.34
2023-05-02T09:14:04.197Z,99674.00
2023-05-02T09:16:39.460Z,99692.28
2023-05-02T09:19:06.631Z,99708.78
2023-05-02T09:21:40.403Z,99694.56
2023-05-02T09:24:21.519Z,99694.44
2023-05-02T09:27:03.304Z,99709.34
2023-05-02T09:29:36.416Z,99715.97
2023-05-02T09:32:12.542Z,99716.03
2023-05-02T09:34:40.049Z,99699.78
2023-05-02T09:37:07.369Z,99698.56
2023-05-02T09:39:34.693Z,99707.00
2023-05-02T09:42:03.944Z,99701.28
2023-05-02T09:57:54.731Z,99693.75
2023-05-02T10:00:22.573Z,99718.09
2023-05-02T10:02:51.831Z,99708.59
2023-05-02T10:05:23.861Z,99705.25
2023-05-02T10:07:51.350Z,99692.59
2023-05-02T10:10:19.147Z,99723.66
2023-05-02T10:12:48.499Z,99702.59
2023-05-02T10:15:22.701Z,99718.53
2023-05-02T10:17:52.289Z,99703.44
2023-05-02T10:20:23.959Z,99703.69
2023-05-02T10:22:51.964Z,99695.66
2023-05-02T10:25:19.797Z,99702.97
2023-05-02T10:27:48.836Z,99717.47
2023-05-02T10:30:26.412Z,99689.91
2023-05-02T10:32:54.836Z,99698.06
2023-05-02T10:35:24.904Z,99685.41
2023-05-02T10:37:53.145Z,99691.56
2023-05-02T10:40:24.952Z,99707.78
2023-05-02T10:42:53.391Z,99707.66
2023-05-02T10:45:38.332Z,99692.78
2023-05-02T10:48:23.574Z,99692.38
2023-05-02T10:50:56.090Z,99708.53
2023-05-02T10:53:40.099Z,99701.63
2023-05-02T10:56:22.575Z,99687.19
2023-05-02T10:58:52.246Z,99679.59
2023-05-02T11:01:27.514Z,99695.78
2023-05-02T11:03:58.382Z,99700.91
2023-05-02T11:06:27.936Z,99707.00
2023-05-02T11:09:17.073Z,99703.81
2023-05-02T11:11:48.559Z,99702.41
2023-05-02T11:14:31.290Z,99705.31
2023-05-02T11:17:05.802Z,99702.63
2023-05-02T11:19:46.857Z,99697.78
2023-05-02T11:22:27.251Z,99697.59
2023-05-02T11:24:54.835Z,99702.22
2023-05-02T11:27:31.615Z,99702.31
2023-05-02T11:30:00.654Z,99698.44
2023-05-02T11:32:53.790Z,99696.06
2023-05-02T11:35:27.100Z,99706.66
2023-05-02T11:38:03.330Z,99694.00
2023-05-02T11:40:33.691Z,99701.22
2023-05-02T11:43:01.716Z,99680.91
2023-05-02T11:45:45.660Z,99682.31
2023-05-02T11:48:14.988Z,99676.00
2023-05-02T11:50:50.503Z,99698.38
2023-05-02T11:53:23.601Z,99680.00
2023-05-02T11:55:56.036Z,99698.75
2023-05-02T11:58:33.078Z,99700.53
2023-05-02T12:01:15.176Z,99697.31
2023-05-02T12:03:43.184Z,99691.66
2023-05-02T12:06:20.811Z,99708.94
2023-05-02T12:08:49.625Z,99699.69
2023-05-02T12:11:17.603Z,99707.00
2023-05-02T12:13:50.523Z,99686.19
2023-05-02T12:16:50.411Z,99719.13
2023-05-02T12:19:10.612Z,99692.78
2023-05-02T12:21:41.544Z,99730.19
2023-05-02T12:24:25.817Z,99710.47
2023-05-02T12:27:12.794Z,99706.81
2023-05-02T12:29:47.312Z,99718.94
2023-05-02T12:32:16.875Z,99691.13
2023-05-02T12:34:44.596Z,99695.81
2023-05-02T12:37:25.819Z,99693.72
2023-05-02T12:39:55.917Z,99675.66
2023-05-02T12:42:25.798Z,99694.84
2023-05-02T12:44:55.136Z,99684.72
2023-05-02T12:47:26.644Z,99683.97
2023-05-02T12:49:56.702Z,99699.03
2023-05-02T12:53:01.049Z,99708.88
2023-05-02T12:55:29.980Z,99686.63
2023-05-02T12:58:08.098Z,99683.03
2023-05-02T13:00:45.747Z,99692.53
2023-05-02T13:03:23.880Z,99694.25
2023-05-02T13:05:54.821Z,99677.81
2023-05-02T13:08:22.294Z,99699.44
2023-05-02T13:10:49.683Z,99677.97
2023-05-02T13:13:17.105Z,99675.41
2023-05-02T13:15:44.605Z,99678.75
2023-05-02T13:18:12.138Z,99686.88
2023-05-02T13:20:39.668Z,99688.88
2023-05-02T13:23:06.914Z,99674.91
2023-05-02T13:25:34.274Z,99680.00
2023-05-02T13:28:01.698Z,99655.97
2023-05-02T13:30:29.225Z,99689.84
2023-05-02T13:32:58.562Z,99667.69
2023-05-02T13:35:26.635Z,99681.88
2023-05-02T13:37:53.876Z,99677.66
2023-05-02T13:40:21.268Z,99695.38
2023-05-02T13:42:48.637Z,99684.31
2023-05-02T13:45:19.196Z,99675.06
2023-05-02T13:47:46.612Z,99671.91
2023-05-02T13:50:14.243Z,99693.47
2023-05-02T13:52:41.846Z,99660.91
2023-05-02T13:55:09.602Z,99677.75
2023-05-02T13:57:36.821Z,99657.94
2023-05-02T14:00:04.990Z,99654.41
2023-05-02T14:02:32.871Z,99672.44
2023-05-02T14:05:00.358Z,99672.94
2023-05-02T14:07:27.511Z,99669.31
2023-05-02T14:09:54.756Z,99658.19
2023-05-02T14:12:22.165Z,99660.19
2023-05-02T14:14:49.451Z,99666.69
2023-05-02T14:17:16.882Z,99669.16
2023-05-02T14:19:44.191Z,99675.91
2023-05-02T14:22:11.599Z,99657.91
2023-05-02T14:24:38.814Z,99681.09
2023-05-02T14:27:07.920Z,99658.69
2023-05-02T14:29:37.979Z,99662.91
2023-05-02T14:32:05.653Z,99665.16
2023-05-02T14:34:33.103Z,99663.66
2023-05-02T14:37:00.416Z,99671.31
2023-05-02T14:39:27.980Z,99658.31
2023-05-02T14:41:55.156Z,99653.06
2023-05-02T14:44:22.523Z,99671.50
2023-05-02T14:46:49.782Z,99635.50
2023-05-02T14:49:17.153Z,99664.16
2023-05-02T14:51:47.485Z,99657.50
2023-05-02T14:54:17.002Z,99664.34
2023-05-02T14:56:44.671Z,99671.19
2023-05-02T14:59:12.027Z,99651.22
2023-05-02T15:01:41.205Z,99658.09
2023-05-02T15:04:08.955Z,99651.69
2023-05-02T15:06:36.882Z,99650.00
2023-05-02T15:09:05.196Z,99649.72
2023-05-02T15:11:32.486Z,99643.06
2023-05-02T15:13:59.891Z,99646.13
2023-05-02T15:16:27.655Z,99657.88
2023-05-02T15:18:55.197Z,99646.72
2023-05-02T15:21:23.169Z,99664.13
2023-05-02T15:23:53.309Z,99651.38
2023-05-02T15:26:20.565Z,99668.22
2023-05-02T15:28:47.701Z,99639.53
2023-05-02T15:31:15.019Z,99676.16
2023-05-02T15:33:42.132Z,99656.97
2023-05-02T15:36:09.453Z,99679.00
2023-05-02T15:38:39.518Z,99681.34
2023-05-02T15:41:08.272Z,99690.34
2023-05-02T15:43:41.217Z,99663.16
2023-05-02T15:46:08.744Z,99668.81
2023-05-02T15:48:36.113Z,99692.84
2023-05-02T15:51:05.706Z,99671.44
2023-05-02T15:53:33.197Z,99683.47
2023-05-02T15:56:00.508Z,99665.81
2023-05-02T15:58:30.358Z,99667.97
2023-05-02T16:04:28.958Z,99678.88
2023-05-02T16:07:11.052Z,99663.22
2023-05-02T16:24:20.187Z,99695.47
2023-05-02T16:26:48.435Z,99677.28
2023-05-02T16:29:15.896Z,99674.75
2023-05-02T16:31:44.527Z,99681.06
2023-05-02T16:34:12.234Z,99688.13
2023-05-02T16:36:39.374Z,99689.41
2023-05-02T16:39:06.974Z,99695.53
2023-05-02T16:41:36.257Z,99692.47
2023-05-02T16:44:03.727Z,99689.38
2023-05-02T16:46:32.410Z,99690.53
2023-05-02T16:48:59.863Z,99663.75
2023-05-02T16:51:28.023Z,99704.16
2023-05-02T16:53:58.580Z,99682.72
2023-05-02T16:56:27.349Z,99672.03
2023-05-02T16:58:58.500Z,99696.41
2023-05-02T17:01:25.874Z,99713.56
2023-05-02T17:03:53.238Z,99675.22
2023-05-02T17:06:20.507Z,99689.66
2023-05-02T17:21:58.592Z,99681.72
2023-05-02T17:24:26.578Z,99695.81
2023-05-02T17:26:54.189Z,99687.16
2023-05-02T17:29:21.771Z,99671.66
2023-05-02T17:31:49.419Z,99682.91
2023-05-02T17:34:17.036Z,99683.22
2023-05-02T17:37:05.425Z,99702.31
2023-05-02T17:39:32.779Z,99695.41
2023-05-02T17:42:00.097Z,99691.94
2023-05-02T17:44:27.632Z,99668.19
2023-05-02T17:47:23.032Z,99690.47
2023-05-02T17:49:51.526Z,99669.69
2023-05-02T17:52:19.164Z,99673.88
2023-05-02T17:58:54.308Z,99654.63
2023-05-02T18:01:21.891Z,99676.72
2023-05-02T18:03:52.299Z,99665.75
2023-05-02T18:06:19.736Z,99669.56
2023-05-02T18:08:46.926Z,99678.22
2023-05-02T18:11:23.877Z,99652.47
2023-05-02T18:13:51.648Z,99652.19
2023-05-02T18:16:19.697Z,99650.31
2023-05-02T18:18:47.123Z,99648.72
2023-05-02T18:21:21.734Z,99652.06
2023-05-02T18:23:49.213Z,99652.81
2023-05-02T18:26:16.393Z,99632.78
2023-05-02T18:28:45.290Z,99637.84
2023-05-02T18:31:20.027Z,99648.13
2023-05-02T18:33:47.438Z,99654.97
2023-05-02T18:36:19.428Z,99621.16
2023-05-02T18:38:46.992Z,99624.84
2023-05-02T18:41:14.336Z,99645.00
2023-05-02T18:43:41.764Z,99633.56
2023-05-02T18:46:09.554Z,99636.34
2023-05-02T18:48:54.206Z,99636.09
2023-05-02T18:51:21.907Z,99633.06
2023-05-02T18:53:49.314Z,99604.78
2023-05-02T18:56:19.731Z,99629.78
2023-05-02T18:58:47.898Z,99607.53
2023-05-02T19:01:17.098Z,99595.41
2023-05-02T19:03:44.643Z,99628.88
2023-05-02T19:06:44.209Z,99631.19
2023-05-02T19:09:13.802Z,99614.06
2023-05-02T19:11:41.870Z,99636.66
2023-05-02T19:14:09.563Z,99618.94
2023-05-02T19:16:40.217Z,99621.66
2023-05-02T19:19:08.150Z,99610.94
2023-05-02T19:21:35.661Z,99630.31
2023-05-02T19:24:03.998Z,99620.44
2023-05-02T19:26:31.886Z,99620.22
2023-05-02T19:28:59.627Z,99605.44
2023-05-02T19:31:27.226Z,99626.44
2023-05-02T19:33:55.404Z,99591.88
2023-05-02T19:36:24.776Z,99627.75
2023-05-02T19:38:58.480Z,99592.84
2023-05-02T19:41:26.403Z,99605.31
2023-05-02T19:43:55.901Z,99608.03
2023-05-02T19:46:23.504Z,99615.50
2023-05-02T19:48:50.944Z,99603.88
2023-05-02T19:51:25.628Z,99583.22
2023-05-02T19:53:54.079Z,99604.03
2023-05-02T19:56:21.979Z,99596.00
2023-05-02T19:58:49.386Z,99587.44
2023-05-02T20:01:17.355Z,99588.94
2023-05-02T20:03:49.273Z,99577.81
2023-05-02T20:06:16.776Z,99571.72
2023-05-02T20:09:04.324Z,99610.03
2023-05-02T20:11:32.985Z,99595.84
2023-05-02T20:14:00.564Z,99590.78
2023-05-02T20:16:28.731Z,99584.00
2023-05-02T20:18:59.371Z,99580.22
2023-05-02T20:21:27.192Z,99601.88
2023-05-02T20:23:54.461Z,99584.00
2023-05-02T20:26:21.586Z,99589.34
2023-05-02T20:28:52.112Z,99611.00
2023-05-02T20:31:19.375Z,99602.09
2023-05-02T20:33:46.574Z,99604.09
2023-05-02T20:36:15.152Z,99598.88
2023-05-02T20:38:43.095Z,99606.91
2023-05-02T20:41:14.261Z,99611.63
2023-05-02T20:43:45.221Z,99600.69
2023-05-02T20:46:16.516Z,99606.72
2023-05-02T20:48:43.958Z,99607.91
2023-05-02T20:51:11.088Z,99594.94
2023-05-02T20:53:38.804Z,99600.56
2023-05-02T20:56:06.416Z,99589.88
2023-05-02T20:58:33.778Z,99600.41
2023-05-02T21:01:01.054Z,99591.34
2023-05-02T21:03:28.768Z,99592.53
2023-05-02T21:05:57.351Z,99576.31
2023-05-02T21:08:24.917Z,99585.88
2023-05-02T21:10:53.429Z,99600.28
2023-05-02T21:13:22.042Z,99572.84
2023-05-02T21:15:49.394Z,99584.28
2023-05-02T21:18:16.726Z,99582.97
2023-05-02T21:20:44.618Z,99576.25
2023-05-02T21:23:12.254Z,99583.53
2023-05-02T21:25:39.438Z,99592.59
2023-05-02T21:28:06.621Z,99586.03
2023-05-02T21:30:33.980Z,99584.16
2023-05-02T21:33:01.250Z,99600.75
2023-05-02T21:35:29.000Z,99579.31
2023-05-02T21:37:56.165Z,99603.25
2023-05-02T21:40:23.296Z,99605.59
2023-05-02T21:42:50.369Z,99592.44
2023-05-02T21:45:17.531Z,99594.16
2023-05-02T21:47:44.926Z,99600.81
2023-05-02T21:50:12.327Z,99598.81
2023-05-02T21:52:42.050Z,99592.91
2023-05-02T21:55:09.410Z,99621.00
2023-05-02T21:57:36.654Z,99617.47
2023-05-02T22:00:05.393Z,99602.91
2023-05-02T22:02:39.027Z,99613.72
2023-05-02T22:05:06.387Z,99609.78
2023-05-02T22:07:34.127Z,99610.72
2023-05-02T22:10:01.572Z,99601.28
2023-05-02T22:12:29.031Z,99619.84
2023-05-02T22:14:56.177Z,99625.03
2023-05-02T22:17:23.506Z,99613.22
2023-05-02T22:19:52.509Z,99612.19
2023-05-02T22:22:19.790Z,99609.75
2023-05-02T22:24:47.085Z,99611.28
2023-05-02T22:27:14.424Z,99617.38
2023-05-02T22:29:41.571Z,99605.63
2023-05-02T22:32:08.922Z,99612.38
2023-05-02T22:34:36.122Z,99611.63
2023-05-02T22:37:03.318Z,99607.75
2023-05-02T22:39:30.946Z,99593.94
2023-05-02T22:41:59.871Z,99592.00
2023-05-02T22:44:27.059Z,99612.53
2023-05-02T22:46:54.408Z,99612.53
2023-05-02T22:49:21.531Z,99619.72
2023-05-02T22:51:49.362Z,99616.94
2023-05-02T22:54:17.028Z,99614.13
2023-05-02T22:56:45.787Z,99625.16
2023-05-02T22:59:13.016Z,99629.38
2023-05-02T23:01:40.243Z,99614.59
2023-05-02T23:04:07.792Z,99622.47
2023-05-02T23:06:35.040Z,99615.47
2023-05-02T23:09:02.330Z,99613.38
2023-05-02T23:11:29.555Z,99626.34
2023-05-02T23:13:56.761Z,99639.63
2023-05-02T23:16:25.618Z,99613.06
2023-05-02T23:18:52.952Z,99611.47
2023-05-02T23:21:20.106Z,99625.75
2023-05-02T23:23:47.326Z,99617.31
2023-05-02T23:26:14.466Z,99622.56
2023-05-02T23:28:41.716Z,99627.03
2023-05-02T23:31:09.467Z,99614.28
2023-05-02T23:33:36.807Z,99632.19
2023-05-02T23:36:04.442Z,99616.22
2023-05-02T23:38:31.796Z,99630.25
2023-05-02T23:40:59.087Z,99628.91
2023-05-02T23:43:26.985Z,99617.09
2023-05-02T23:45:54.168Z,99633.31
2023-05-02T23:48:21.284Z,99636.06
2023-05-02T23:50:48.581Z,99619.63
2023-05-02T23:53:16.358Z,99629.00
2023-05-02T23:55:43.691Z,99615.94
2023-05-02T23:58:10.932Z,99623.09
